Time;durP1;ratioP1;P1;durP2;ratioP2;P2;SDS_P1;SDS_P2;PMS_P1;PMS_P2;Temp;Humidity;BMP_temperature;BMP_pressure;BME280_temperature;BME280_humidity;BME280_pressure;Samples;Min_cycle;Max_cycle;Signal;HPM_P1;HPM_P2
2023/03/25 00:01:24;;;;;;;1.63;1.52;;;;;;;;;;5096496;28;20246;-63
2023/03/25 00:03:53;;;;;;;1.52;1.42;;;;;;;;;;5096286;28;20210;-63
2023/03/25 00:06:20;;;;;;;1.27;1.17;;;;;;;;;;5096367;28;20204;-63
2023/03/25 00:08:48;;;;;;;1.50;1.40;;;;;;;;;;5096428;28;20273;-63
2023/03/25 00:11:15;;;;;;;1.45;1.35;;;;;;;;;;5095913;28;20210;-63
2023/03/25 00:13:43;;;;;;;1.58;1.30;;;;;;;;;;5096209;28;20211;-63
2023/03/25 00:16:11;;;;;;;1.85;1.30;;;;;;;;;;5095995;28;20231;-63
2023/03/25 00:18:38;;;;;;;1.40;1.30;;;;;;;;;;5096357;28;20212;-63
2023/03/25 00:21:09;;;;;;;1.70;1.45;;;;;;;;;;5099685;28;20227;-63
2023/03/25 00:23:37;;;;;;;1.38;1.27;;;;;;;;;;5099940;28;20287;-63
2023/03/25 00:26:04;;;;;;;1.20;1.10;;;;;;;;;;5100364;28;20230;-63
2023/03/25 00:28:33;;;;;;;1.60;1.50;;;;;;;;;;5100054;28;20203;-63
2023/03/25 00:31:01;;;;;;;1.92;1.65;;;;;;;;;;5100085;28;20200;-63
2023/03/25 00:33:28;;;;;;;1.50;1.40;;;;;;;;;;5100155;28;20646;-63
2023/03/25 00:35:58;;;;;;;1.58;1.48;;;;;;;;;;5100086;28;20550;-63
2023/03/25 00:38:32;;;;;;;1.52;1.30;;;;;;;;;;5099968;28;20207;-63
2023/03/25 00:41:03;;;;;;;1.40;1.30;;;;;;;;;;5099859;28;20220;-63
2023/03/25 00:43:31;;;;;;;1.30;1.20;;;;;;;;;;5099773;28;20468;-63
2023/03/25 00:45:58;;;;;;;1.27;1.17;;;;;;;;;;5099478;28;20253;-63
2023/03/25 00:48:28;;;;;;;1.30;1.20;;;;;;;;;;5099288;28;20212;-63
2023/03/25 00:50:55;;;;;;;1.30;1.20;;;;;;;;;;5099721;28;20206;-63
2023/03/25 00:53:23;;;;;;;1.40;1.30;;;;;;;;;;5099759;28;20268;-63
2023/03/25 00:55:52;;;;;;;1.20;1.10;;;;;;;;;;5099217;28;20708;-63
2023/03/25 00:58:19;;;;;;;1.20;1.10;;;;;;;;;;5099451;28;20237;-63
2023/03/25 01:00:48;;;;;;;1.13;1.02;;;;;;;;;;5098922;28;20227;-63
2023/03/25 01:03:15;;;;;;;1.55;1.45;;;;;;;;;;5099821;28;20644;-63
2023/03/25 01:05:43;;;;;;;1.45;1.23;;;;;;;;;;5099866;28;20548;-63
2023/03/25 01:08:13;;;;;;;1.23;1.13;;;;;;;;;;5099605;28;20302;-63
2023/03/25 01:10:41;;;;;;;1.33;1.23;;;;;;;;;;5099573;28;20203;-63
2023/03/25 01:13:10;;;;;;;1.17;1.08;;;;;;;;;;5098947;28;20215;-63
2023/03/25 01:15:37;;;;;;;1.20;1.10;;;;;;;;;;5099455;28;20211;-63
2023/03/25 01:18:04;;;;;;;1.20;1.10;;;;;;;;;;5099312;28;20207;-63
2023/03/25 01:20:32;;;;;;;0.90;0.90;;;;;;;;;;5099314;28;20204;-63
2023/03/25 01:22:59;;;;;;;1.30;0.90;;;;;;;;;;5099222;28;20272;-63
2023/03/25 01:25:27;;;;;;;1.15;1.05;;;;;;;;;;5099058;28;20212;-63
2023/03/25 01:27:54;;;;;;;1.13;1.02;;;;;;;;;;5099192;28;20204;-63
2023/03/25 01:30:23;;;;;;;1.13;1.00;;;;;;;;;;5098459;28;20211;-63
2023/03/25 01:32:50;;;;;;;1.00;1.00;;;;;;;;;;5099020;28;20212;-63
2023/03/25 01:35:17;;;;;;;1.08;1.08;;;;;;;;;;5098736;28;20269;-63
2023/03/25 01:37:45;;;;;;;1.08;0.98;;;;;;;;;;5098879;28;20273;-63
2023/03/25 01:40:17;;;;;;;1.10;1.00;;;;;;;;;;5098290;28;20203;-63
2023/03/25 01:42:45;;;;;;;0.80;0.80;;;;;;;;;;5098566;28;20510;-63
2023/03/25 01:45:19;;;;;;;1.33;0.80;;;;;;;;;;5099414;28;20214;-63
2023/03/25 01:47:48;;;;;;;1.00;0.90;;;;;;;;;;5098871;28;20202;-63
2023/03/25 01:50:16;;;;;;;1.05;0.95;;;;;;;;;;5098948;28;20253;-63
2023/03/25 01:52:45;;;;;;;0.93;0.90;;;;;;;;;;5098610;28;20192;-63
2023/03/25 01:55:12;;;;;;;0.80;0.80;;;;;;;;;;5098155;28;20300;-63
2023/03/25 01:57:42;;;;;;;1.10;1.00;;;;;;;;;;5098190;28;20260;-63
2023/03/25 02:00:11;;;;;;;0.90;0.90;;;;;;;;;;5098837;28;20583;-63
2023/03/25 02:02:39;;;;;;;0.77;0.75;;;;;;;;;;5098040;28;20227;-63
2023/03/25 02:05:10;;;;;;;1.17;1.08;;;;;;;;;;5098390;28;20527;-63
2023/03/25 02:07:41;;;;;;;0.90;0.90;;;;;;;;;;5098071;28;20553;-63
2023/03/25 02:10:11;;;;;;;1.00;0.82;;;;;;;;;;5098320;28;20302;-63
2023/03/25 02:12:39;;;;;;;1.13;1.00;;;;;;;;;;5097692;28;20199;-63
2023/03/25 02:15:08;;;;;;;0.98;0.80;;;;;;;;;;5097719;28;20204;-63
2023/03/25 02:17:39;;;;;;;0.82;0.82;;;;;;;;;;5097819;28;20211;-63
2023/03/25 02:20:29;;;;;;;0.80;0.80;;;;;;;;;;5098496;28;20277;-63
2023/03/25 02:23:27;;;;;;;1.02;0.90;;;;;;;;;;5098310;28;20231;-63
2023/03/25 02:26:06;;;;;;;1.27;0.93;;;;;;;;;;5015590;28;20213;-63
2023/03/25 02:28:35;;;;;;;1.15;1.05;;;;;;;;;;5086654;28;20747;-63
2023/03/25 02:31:18;;;;;;;0.70;0.70;;;;;;;;;;5098221;28;20203;-63
2023/03/25 02:34:04;;;;;;;1.00;0.85;;;;;;;;;;5097776;28;20210;-63
2023/03/25 02:36:47;;;;;;;0.70;0.70;;;;;;;;;;5097542;28;20261;-63
2023/03/25 02:39:21;;;;;;;1.50;0.90;;;;;;;;;;5098301;28;20214;-63
2023/03/25 02:41:50;;;;;;;1.23;0.70;;;;;;;;;;5096952;28;20285;-63
2023/03/25 02:44:19;;;;;;;1.00;0.85;;;;;;;;;;5097290;28;20204;-63
2023/03/25 02:46:49;;;;;;;0.70;0.70;;;;;;;;;;5097818;28;20204;-63
2023/03/25 02:49:20;;;;;;;0.70;0.70;;;;;;;;;;5097395;28;20260;-63
2023/03/25 02:51:51;;;;;;;0.70;0.70;;;;;;;;;;5097329;28;20207;-63
2023/03/25 02:54:21;;;;;;;0.80;0.80;;;;;;;;;;5097265;28;20203;-63
2023/03/25 02:56:49;;;;;;;0.88;0.80;;;;;;;;;;5097665;28;20235;-63
2023/03/25 02:59:21;;;;;;;1.40;0.90;;;;;;;;;;5097505;28;20203;-63
2023/03/25 03:01:49;;;;;;;1.17;0.80;;;;;;;;;;5097064;28;20230;-63
2023/03/25 03:04:16;;;;;;;0.60;0.60;;;;;;;;;;5097773;28;20537;-63
2023/03/25 03:06:44;;;;;;;0.70;0.70;;;;;;;;;;5097996;28;20211;-63
2023/03/25 03:09:24;;;;;;;0.88;0.70;;;;;;;;;;5097394;28;20212;-63
2023/03/25 03:11:55;;;;;;;0.60;0.60;;;;;;;;;;5096999;28;20579;-63
2023/03/25 03:14:31;;;;;;;0.73;0.60;;;;;;;;;;5096689;28;20644;-63
2023/03/25 03:17:03;;;;;;;1.52;0.55;;;;;;;;;;5097171;28;20469;-63
2023/03/25 03:19:36;;;;;;;0.75;0.75;;;;;;;;;;5097061;28;20484;-63
2023/03/25 03:22:13;;;;;;;0.80;0.63;;;;;;;;;;5097035;28;20227;-63
2023/03/25 03:24:43;;;;;;;0.75;0.65;;;;;;;;;;5097130;28;20204;-63
2023/03/25 03:27:13;;;;;;;0.68;0.65;;;;;;;;;;5097027;28;20238;-63
2023/03/25 03:29:45;;;;;;;0.60;0.60;;;;;;;;;;5097357;28;20235;-63
2023/03/25 03:32:14;;;;;;;0.60;0.60;;;;;;;;;;5097276;28;20580;-63
2023/03/25 03:34:45;;;;;;;0.50;0.50;;;;;;;;;;5097017;28;20237;-63
2023/03/25 03:37:15;;;;;;;0.77;0.60;;;;;;;;;;5097707;28;20233;-63
2023/03/25 03:39:44;;;;;;;0.85;0.65;;;;;;;;;;5097318;28;20208;-63
2023/03/25 03:42:15;;;;;;;0.40;0.40;;;;;;;;;;5096808;28;20322;-63
2023/03/25 03:44:44;;;;;;;0.70;0.60;;;;;;;;;;5097095;28;20207;-63
2023/03/25 03:47:13;;;;;;;0.60;0.60;;;;;;;;;;5097106;28;20227;-63
2023/03/25 03:49:42;;;;;;;0.85;0.63;;;;;;;;;;5096721;28;20511;-63
2023/03/25 03:52:10;;;;;;;0.70;0.70;;;;;;;;;;5097183;28;20579;-63
2023/03/25 03:54:39;;;;;;;0.60;0.60;;;;;;;;;;5099925;28;20210;-63
2023/03/25 03:57:09;;;;;;;0.55;0.55;;;;;;;;;;5100640;28;20236;-63
2023/03/25 03:59:40;;;;;;;0.50;0.50;;;;;;;;;;5101396;28;20359;-63
2023/03/25 04:02:13;;;;;;;0.50;0.50;;;;;;;;;;5101481;28;20234;-63
2023/03/25 04:04:41;;;;;;;1.05;0.50;;;;;;;;;;5100828;28;20208;-63
2023/03/25 04:07:13;;;;;;;1.05;0.50;;;;;;;;;;5101334;28;20480;-63
2023/03/25 04:09:53;;;;;;;0.73;0.70;;;;;;;;;;5100948;28;20614;-63
2023/03/25 04:12:23;;;;;;;0.50;0.50;;;;;;;;;;5100591;28;20210;-63
2023/03/25 04:14:51;;;;;;;0.80;0.60;;;;;;;;;;5100558;28;20613;-63
2023/03/25 04:17:18;;;;;;;0.80;0.60;;;;;;;;;;5100845;28;20276;-63
2023/03/25 04:19:47;;;;;;;0.60;0.60;;;;;;;;;;5100983;28;20268;-63
2023/03/25 04:22:16;;;;;;;0.50;0.47;;;;;;;;;;5100536;28;20554;-63
2023/03/25 04:24:43;;;;;;;0.77;0.47;;;;;;;;;;5100609;28;20203;-63
2023/03/25 04:27:12;;;;;;;0.52;0.45;;;;;;;;;;5100744;28;20294;-63
2023/03/25 04:29:42;;;;;;;0.45;0.45;;;;;;;;;;5101276;28;20233;-63
2023/03/25 04:32:11;;;;;;;0.40;0.40;;;;;;;;;;5100654;28;20278;-63
2023/03/25 04:34:39;;;;;;;0.90;0.57;;;;;;;;;;5100727;28;20211;-63
2023/03/25 04:37:06;;;;;;;0.40;0.40;;;;;;;;;;5100614;28;20210;-63
2023/03/25 04:39:33;;;;;;;0.50;0.50;;;;;;;;;;5100087;28;20203;-63
2023/03/25 04:42:02;;;;;;;0.95;0.50;;;;;;;;;;5100201;28;20223;-63
2023/03/25 04:44:32;;;;;;;0.40;0.40;;;;;;;;;;5100625;28;20578;-63
2023/03/25 04:47:01;;;;;;;0.70;0.40;;;;;;;;;;5100528;28;20249;-63
2023/03/25 04:49:28;;;;;;;0.45;0.40;;;;;;;;;;5100248;28;20264;-63
2023/03/25 04:51:56;;;;;;;0.77;0.50;;;;;;;;;;5099880;28;20215;-63
2023/03/25 04:54:24;;;;;;;0.95;0.60;;;;;;;;;;5099835;28;20603;-63
2023/03/25 04:56:51;;;;;;;0.73;0.60;;;;;;;;;;5099933;28;20251;-63
2023/03/25 04:59:19;;;;;;;0.50;0.40;;;;;;;;;;5099969;28;20599;-63
2023/03/25 05:01:47;;;;;;;0.60;0.40;;;;;;;;;;5099472;28;20588;-63
2023/03/25 05:04:17;;;;;;;0.40;0.40;;;;;;;;;;5099888;28;20203;-63
2023/03/25 05:06:45;;;;;;;0.82;0.50;;;;;;;;;;5098559;28;20527;-63
2023/03/25 05:09:14;;;;;;;1.02;0.40;;;;;;;;;;5099875;28;20204;-63
2023/03/25 05:11:42;;;;;;;0.50;0.50;;;;;;;;;;5099697;28;20214;-63
2023/03/25 05:14:11;;;;;;;0.50;0.50;;;;;;;;;;5099414;28;20471;-63
2023/03/25 05:16:39;;;;;;;0.50;0.50;;;;;;;;;;5099247;28;20591;-63
2023/03/25 05:19:07;;;;;;;0.57;0.40;;;;;;;;;;5099257;28;20226;-63
2023/03/25 05:21:36;;;;;;;0.70;0.52;;;;;;;;;;5099439;28;20233;-63
2023/03/25 05:24:04;;;;;;;1.23;0.60;;;;;;;;;;5099671;28;20259;-63
2023/03/25 05:26:33;;;;;;;0.60;0.60;;;;;;;;;;5099267;28;20578;-63
2023/03/25 05:29:00;;;;;;;0.60;0.60;;;;;;;;;;5099239;28;20215;-63
2023/03/25 05:31:28;;;;;;;1.67;0.40;;;;;;;;;;5099108;28;20212;-63
2023/03/25 05:33:56;;;;;;;0.40;0.40;;;;;;;;;;5098662;28;20204;-63
2023/03/25 05:36:24;;;;;;;0.50;0.40;;;;;;;;;;5098837;28;20223;-63
2023/03/25 05:38:54;;;;;;;0.40;0.35;;;;;;;;;;5098681;28;20231;-63
2023/03/25 05:41:31;;;;;;;0.47;0.47;;;;;;;;;;5098798;28;20294;-63
2023/03/25 05:43:59;;;;;;;0.60;0.35;;;;;;;;;;5099049;28;20242;-63
2023/03/25 05:46:28;;;;;;;0.60;0.50;;;;;;;;;;5098843;28;20265;-63
2023/03/25 05:48:56;;;;;;;0.43;0.35;;;;;;;;;;5098766;28;20298;-63
2023/03/25 05:51:24;;;;;;;0.50;0.50;;;;;;;;;;5098205;28;20644;-63
2023/03/25 05:53:53;;;;;;;0.70;0.50;;;;;;;;;;5098817;28;20196;-63
2023/03/25 05:56:21;;;;;;;0.40;0.40;;;;;;;;;;5098379;28;20630;-63
2023/03/25 05:58:50;;;;;;;0.85;0.60;;;;;;;;;;5098650;28;20204;-63
2023/03/25 06:01:18;;;;;;;0.50;0.40;;;;;;;;;;5098754;28;20306;-63
2023/03/25 06:03:46;;;;;;;0.30;0.30;;;;;;;;;;5098432;28;20257;-63
2023/03/25 06:06:13;;;;;;;0.50;0.50;;;;;;;;;;5098643;28;20249;-63
2023/03/25 06:08:41;;;;;;;0.63;0.50;;;;;;;;;;5098273;28;20314;-63
2023/03/25 06:11:12;;;;;;;0.40;0.40;;;;;;;;;;5098223;28;20269;-63
2023/03/25 06:13:40;;;;;;;0.93;0.40;;;;;;;;;;5098319;28;20203;-63
2023/03/25 06:16:08;;;;;;;0.40;0.40;;;;;;;;;;5097144;28;20587;-63
2023/03/25 06:18:36;;;;;;;1.27;0.47;;;;;;;;;;5097738;28;20204;-63
2023/03/25 06:21:05;;;;;;;0.85;0.50;;;;;;;;;;5097627;28;20286;-63
2023/03/25 06:23:34;;;;;;;0.40;0.40;;;;;;;;;;5098161;28;20223;-63
2023/03/25 06:26:03;;;;;;;1.08;0.50;;;;;;;;;;5097308;28;20301;-63
2023/03/25 06:28:32;;;;;;;0.50;0.50;;;;;;;;;;5098165;28;20204;-63
2023/03/25 06:31:02;;;;;;;0.90;0.50;;;;;;;;;;5098280;28;20203;-63
2023/03/25 06:33:29;;;;;;;0.40;0.30;;;;;;;;;;5097721;28;20572;-63
2023/03/25 06:35:56;;;;;;;0.70;0.50;;;;;;;;;;5098122;28;20722;-63
2023/03/25 06:38:25;;;;;;;0.70;0.50;;;;;;;;;;5097824;28;20580;-63
2023/03/25 06:40:52;;;;;;;0.40;0.38;;;;;;;;;;5098049;28;20204;-63
2023/03/25 06:43:19;;;;;;;0.30;0.30;;;;;;;;;;5097748;28;20235;-63
2023/03/25 06:45:51;;;;;;;0.50;0.50;;;;;;;;;;5097414;28;20249;-63
2023/03/25 06:48:18;;;;;;;0.63;0.50;;;;;;;;;;5097201;28;20245;-63
2023/03/25 06:50:45;;;;;;;0.43;0.40;;;;;;;;;;5097805;28;20498;-63
2023/03/25 06:53:13;;;;;;;0.40;0.40;;;;;;;;;;5097485;28;20227;-63
2023/03/25 06:55:40;;;;;;;0.30;0.30;;;;;;;;;;5097211;28;20239;-63
2023/03/25 06:58:07;;;;;;;0.47;0.40;;;;;;;;;;5097311;28;20678;-63
2023/03/25 07:00:35;;;;;;;0.45;0.35;;;;;;;;;;5097511;28;20591;-63
2023/03/25 07:03:03;;;;;;;0.63;0.40;;;;;;;;;;5097685;28;20224;-63
2023/03/25 07:05:31;;;;;;;1.20;0.40;;;;;;;;;;5097617;28;20268;-63
2023/03/25 07:07:58;;;;;;;0.98;0.40;;;;;;;;;;5097218;28;20591;-63
2023/03/25 07:10:26;;;;;;;0.45;0.40;;;;;;;;;;5097112;28;20211;-63
2023/03/25 07:12:53;;;;;;;0.30;0.30;;;;;;;;;;5096585;28;20285;-63
2023/03/25 07:15:20;;;;;;;0.40;0.40;;;;;;;;;;5096909;28;20268;-63
2023/03/25 07:17:48;;;;;;;0.35;0.30;;;;;;;;;;5097007;28;20203;-63
2023/03/25 07:20:17;;;;;;;0.40;0.40;;;;;;;;;;5096915;28;20207;-63
2023/03/25 07:22:45;;;;;;;0.50;0.50;;;;;;;;;;5096326;28;20247;-63
2023/03/25 07:25:12;;;;;;;1.10;0.40;;;;;;;;;;5096407;28;20701;-63
2023/03/25 07:27:39;;;;;;;0.60;0.50;;;;;;;;;;5096377;28;20242;-63
2023/03/25 07:30:07;;;;;;;0.40;0.38;;;;;;;;;;5096412;28;20203;-63
2023/03/25 07:32:35;;;;;;;0.50;0.35;;;;;;;;;;5096285;28;20285;-63
2023/03/25 07:35:02;;;;;;;0.40;0.40;;;;;;;;;;5096437;28;20686;-63
2023/03/25 07:37:31;;;;;;;0.50;0.50;;;;;;;;;;5096847;28;20619;-63
2023/03/25 07:39:58;;;;;;;1.15;0.40;;;;;;;;;;5096445;28;20260;-63
2023/03/25 07:42:25;;;;;;;0.40;0.40;;;;;;;;;;5095987;28;20269;-63
2023/03/25 07:44:53;;;;;;;0.40;0.40;;;;;;;;;;5096013;28;20227;-63
2023/03/25 07:47:20;;;;;;;0.50;0.40;;;;;;;;;;5096503;28;20551;-63
2023/03/25 07:49:48;;;;;;;0.50;0.40;;;;;;;;;;5096070;28;20211;-63
2023/03/25 07:52:16;;;;;;;1.00;0.50;;;;;;;;;;5095512;28;20206;-63
2023/03/25 07:54:44;;;;;;;0.40;0.40;;;;;;;;;;5096187;28;20213;-63
2023/03/25 07:57:12;;;;;;;0.40;0.40;;;;;;;;;;5095458;28;20514;-63
2023/03/25 07:59:39;;;;;;;0.30;0.30;;;;;;;;;;5096112;28;20280;-63
2023/03/25 08:02:07;;;;;;;0.40;0.40;;;;;;;;;;5095712;28;20212;-63
2023/03/25 08:04:35;;;;;;;1.02;0.40;;;;;;;;;;5095102;28;20322;-63
2023/03/25 08:07:02;;;;;;;0.35;0.35;;;;;;;;;;5095690;28;20239;-63
2023/03/25 08:09:30;;;;;;;0.60;0.50;;;;;;;;;;5096371;28;20212;-63
2023/03/25 08:11:59;;;;;;;1.90;0.60;;;;;;;;;;5095712;28;20530;-63
2023/03/25 08:14:27;;;;;;;1.33;0.35;;;;;;;;;;5095329;28;20207;-63
2023/03/25 08:16:54;;;;;;;1.35;0.50;;;;;;;;;;5095386;28;20294;-63
2023/03/25 08:19:21;;;;;;;0.70;0.40;;;;;;;;;;5094767;28;20207;-63
2023/03/25 08:21:48;;;;;;;0.88;0.40;;;;;;;;;;5095367;28;20211;-63
2023/03/25 08:24:16;;;;;;;0.55;0.40;;;;;;;;;;5095684;28;20231;-63
2023/03/25 08:26:43;;;;;;;0.45;0.40;;;;;;;;;;5095516;28;20204;-63
2023/03/25 08:29:16;;;;;;;1.55;0.40;;;;;;;;;;5095644;28;20318;-63
2023/03/25 08:31:45;;;;;;;1.00;0.40;;;;;;;;;;5096122;28;20219;-63
2023/03/25 08:34:13;;;;;;;1.13;0.40;;;;;;;;;;5095190;28;20204;-64
2023/03/25 08:36:40;;;;;;;0.65;0.40;;;;;;;;;;5095585;28;20204;-63
2023/03/25 08:39:10;;;;;;;1.45;0.40;;;;;;;;;;5095114;28;20657;-63
2023/03/25 08:41:37;;;;;;;0.52;0.50;;;;;;;;;;5099040;28;20203;-63
2023/03/25 08:44:05;;;;;;;0.70;0.50;;;;;;;;;;5099430;28;20321;-63
2023/03/25 08:46:33;;;;;;;0.50;0.50;;;;;;;;;;5099632;28;20257;-63
2023/03/25 08:49:01;;;;;;;1.77;0.60;;;;;;;;;;5099186;28;20211;-63
2023/03/25 08:51:28;;;;;;;0.65;0.50;;;;;;;;;;5098661;28;20594;-63
2023/03/25 08:53:55;;;;;;;1.05;0.45;;;;;;;;;;5099260;28;20207;-63
2023/03/25 08:56:23;;;;;;;0.93;0.57;;;;;;;;;;5098993;28;20243;-63
2023/03/25 08:58:50;;;;;;;0.60;0.47;;;;;;;;;;5099014;28;20289;-63
2023/03/25 09:01:17;;;;;;;1.00;0.70;;;;;;;;;;5098984;28;20268;-63
2023/03/25 09:03:46;;;;;;;1.17;0.50;;;;;;;;;;5098790;28;20235;-63
2023/03/25 09:06:13;;;;;;;1.05;0.38;;;;;;;;;;5098992;28;20215;-63
2023/03/25 09:08:41;;;;;;;1.08;0.60;;;;;;;;;;5098655;28;20214;-63
2023/03/25 09:11:08;;;;;;;1.00;0.50;;;;;;;;;;5098342;28;20204;-63
2023/03/25 09:13:35;;;;;;;1.13;0.68;;;;;;;;;;5097578;28;20200;-63
2023/03/25 09:16:02;;;;;;;1.00;0.60;;;;;;;;;;5097658;28;20204;-63
2023/03/25 09:18:31;;;;;;;1.50;0.50;;;;;;;;;;5098592;28;20203;-63
2023/03/25 09:21:00;;;;;;;0.65;0.40;;;;;;;;;;5098372;28;20310;-63
2023/03/25 09:23:28;;;;;;;0.57;0.40;;;;;;;;;;5098397;28;20310;-63
2023/03/25 09:25:55;;;;;;;0.75;0.60;;;;;;;;;;5098122;28;20595;-63
2023/03/25 09:28:22;;;;;;;2.33;0.60;;;;;;;;;;5098120;28;20236;-63
2023/03/25 09:30:50;;;;;;;2.08;0.70;;;;;;;;;;5097943;28;20212;-63
2023/03/25 09:33:18;;;;;;;0.82;0.57;;;;;;;;;;5097733;28;20223;-63
2023/03/25 09:35:45;;;;;;;1.17;0.60;;;;;;;;;;5098215;28;20228;-63
2023/03/25 09:38:14;;;;;;;0.77;0.60;;;;;;;;;;5097970;28;20645;-63
2023/03/25 09:40:42;;;;;;;1.00;0.57;;;;;;;;;;5097775;28;20215;-63
2023/03/25 09:43:19;;;;;;;1.85;0.50;;;;;;;;;;5097972;28;20210;-63
2023/03/25 09:45:47;;;;;;;1.10;0.57;;;;;;;;;;5097896;28;20602;-63
2023/03/25 09:48:25;;;;;;;0.90;0.63;;;;;;;;;;5097205;28;20663;-63
2023/03/25 09:50:52;;;;;;;1.05;0.50;;;;;;;;;;5097700;28;20215;-63
2023/03/25 09:53:26;;;;;;;1.05;0.60;;;;;;;;;;5096967;28;20207;-63
2023/03/25 09:55:54;;;;;;;0.95;0.50;;;;;;;;;;5096993;28;20239;-63
2023/03/25 09:58:26;;;;;;;0.85;0.68;;;;;;;;;;5097385;28;20203;-63
2023/03/25 10:00:56;;;;;;;1.33;0.50;;;;;;;;;;5097588;28;20214;-63
2023/03/25 10:03:27;;;;;;;0.90;0.50;;;;;;;;;;5097663;28;20257;-63
2023/03/25 10:06:12;;;;;;;0.93;0.50;;;;;;;;;;5097353;28;20200;-63
2023/03/25 10:08:46;;;;;;;0.70;0.50;;;;;;;;;;5084784;28;20233;-63
2023/03/25 10:11:16;;;;;;;0.50;0.50;;;;;;;;;;5097270;28;20223;-63
2023/03/25 10:13:46;;;;;;;0.70;0.50;;;;;;;;;;5097358;28;20199;-63
2023/03/25 10:16:20;;;;;;;0.98;0.60;;;;;;;;;;5096906;28;20203;-63
2023/03/25 10:18:53;;;;;;;0.88;0.60;;;;;;;;;;5097083;28;20247;-63
2023/03/25 10:21:25;;;;;;;1.20;0.55;;;;;;;;;;5096906;28;20245;-63
2023/03/25 10:23:59;;;;;;;0.77;0.60;;;;;;;;;;5096257;28;20254;-63
2023/03/25 10:26:29;;;;;;;0.63;0.50;;;;;;;;;;5095928;28;20210;-63
2023/03/25 10:28:58;;;;;;;0.50;0.50;;;;;;;;;;5096378;28;20595;-63
2023/03/25 10:31:27;;;;;;;1.10;0.60;;;;;;;;;;5096865;28;20207;-63
2023/03/25 10:33:55;;;;;;;1.08;0.50;;;;;;;;;;5096526;28;20610;-63
2023/03/25 10:36:27;;;;;;;0.95;0.60;;;;;;;;;;5096493;28;20211;-63
2023/03/25 10:38:56;;;;;;;0.50;0.50;;;;;;;;;;5097794;28;20236;-63
2023/03/25 10:41:25;;;;;;;0.47;0.45;;;;;;;;;;5097240;28;20204;-63
2023/03/25 10:43:53;;;;;;;0.95;0.60;;;;;;;;;;5095647;28;20253;-63
2023/03/25 10:46:29;;;;;;;0.85;0.50;;;;;;;;;;5097067;28;20206;-63
2023/03/25 10:48:57;;;;;;;1.10;0.50;;;;;;;;;;5095103;28;20285;-63
2023/03/25 10:51:27;;;;;;;0.63;0.50;;;;;;;;;;5104490;28;20207;-63
2023/03/25 10:53:56;;;;;;;1.50;0.70;;;;;;;;;;5116160;28;20196;-63
2023/03/25 10:56:25;;;;;;;1.48;0.60;;;;;;;;;;5102771;28;20650;-63
2023/03/25 10:58:54;;;;;;;1.08;0.55;;;;;;;;;;5096231;28;20207;-63
2023/03/25 11:01:29;;;;;;;0.70;0.60;;;;;;;;;;5095703;28;20206;-62
2023/03/25 11:03:58;;;;;;;1.33;0.70;;;;;;;;;;5094748;28;20199;-62
2023/03/25 11:06:28;;;;;;;1.45;0.60;;;;;;;;;;5096466;28;20269;-62
2023/03/25 11:09:12;;;;;;;0.80;0.68;;;;;;;;;;5095627;28;20206;-62
2023/03/25 11:11:40;;;;;;;1.95;0.70;;;;;;;;;;5096845;28;20215;-63
2023/03/25 11:14:08;;;;;;;1.50;0.70;;;;;;;;;;5096383;28;20211;-63
2023/03/25 11:16:37;;;;;;;0.63;0.60;;;;;;;;;;5096519;28;20298;-63
2023/03/25 11:19:05;;;;;;;1.00;0.65;;;;;;;;;;5096486;28;20207;-63
2023/03/25 11:21:33;;;;;;;2.90;0.60;;;;;;;;;;5096357;28;20264;-62
2023/03/25 11:24:02;;;;;;;0.80;0.70;;;;;;;;;;5110102;28;20198;-63
2023/03/25 11:26:36;;;;;;;0.70;0.70;;;;;;;;;;5115604;28;20267;-63
2023/03/25 11:29:06;;;;;;;0.95;0.50;;;;;;;;;;5105832;28;20290;-63
2023/03/25 11:31:35;;;;;;;0.65;0.60;;;;;;;;;;5104384;28;20203;-63
2023/03/25 11:34:06;;;;;;;0.85;0.60;;;;;;;;;;5095117;28;20206;-63
2023/03/25 11:36:36;;;;;;;0.82;0.60;;;;;;;;;;5115838;28;20787;-63
2023/03/25 11:39:12;;;;;;;0.98;0.73;;;;;;;;;;5114882;28;20206;-63
2023/03/25 11:41:39;;;;;;;1.00;0.50;;;;;;;;;;5116258;28;20294;-63
2023/03/25 11:44:07;;;;;;;1.15;0.60;;;;;;;;;;5115726;28;20207;-63
2023/03/25 11:46:36;;;;;;;0.63;0.63;;;;;;;;;;5116044;28;20297;-63
2023/03/25 11:49:18;;;;;;;0.95;0.60;;;;;;;;;;5102555;28;20203;-63
2023/03/25 11:51:45;;;;;;;0.70;0.60;;;;;;;;;;5095971;28;20211;-63
2023/03/25 11:54:16;;;;;;;1.55;0.73;;;;;;;;;;5095731;28;20264;-63
2023/03/25 11:56:45;;;;;;;0.77;0.60;;;;;;;;;;5094533;28;20235;-63
2023/03/25 11:59:19;;;;;;;1.40;0.60;;;;;;;;;;5108475;28;20628;-63
2023/03/25 12:01:47;;;;;;;0.80;0.63;;;;;;;;;;5115721;28;20232;-63
2023/03/25 12:04:16;;;;;;;1.20;0.70;;;;;;;;;;5115537;28;20203;-63
2023/03/25 12:06:53;;;;;;;1.33;0.70;;;;;;;;;;5115570;28;20305;-62
2023/03/25 12:09:22;;;;;;;1.15;0.60;;;;;;;;;;5100754;28;20293;-62
2023/03/25 12:11:53;;;;;;;1.23;0.60;;;;;;;;;;5094521;28;20215;-62
2023/03/25 12:14:27;;;;;;;0.90;0.50;;;;;;;;;;5094925;28;20200;-62
2023/03/25 12:16:58;;;;;;;0.80;0.60;;;;;;;;;;5099205;28;20286;-62
2023/03/25 12:19:30;;;;;;;1.27;0.50;;;;;;;;;;5113683;28;20497;-63
2023/03/25 12:22:14;;;;;;;1.27;0.63;;;;;;;;;;5120088;28;20199;-63
2023/03/25 12:24:57;;;;;;;1.02;0.50;;;;;;;;;;5119384;28;20226;-63
2023/03/25 12:27:29;;;;;;;1.30;0.52;;;;;;;;;;5119209;28;20602;-63
2023/03/25 12:30:02;;;;;;;2.13;1.10;;;;;;;;;;5099820;28;20210;-63
2023/03/25 12:32:34;;;;;;;0.73;0.60;;;;;;;;;;5098526;28;20226;-63
2023/03/25 12:35:09;;;;;;;1.25;0.60;;;;;;;;;;5098801;28;20481;-63
2023/03/25 12:37:44;;;;;;;1.88;0.80;;;;;;;;;;5097632;28;20271;-63
2023/03/25 12:40:26;;;;;;;0.82;0.60;;;;;;;;;;5097497;28;20617;-63
2023/03/25 12:42:57;;;;;;;2.15;0.70;;;;;;;;;;5095119;28;20211;-63
2023/03/25 12:45:30;;;;;;;1.02;0.80;;;;;;;;;;5099009;28;20231;-63
2023/03/25 12:47:59;;;;;;;1.75;0.90;;;;;;;;;;5098408;28;20214;-63
2023/03/25 12:50:33;;;;;;;2.28;0.80;;;;;;;;;;5117767;28;20210;-63
2023/03/25 12:53:04;;;;;;;1.27;0.70;;;;;;;;;;5117771;28;20214;-63
2023/03/25 12:55:46;;;;;;;1.10;0.70;;;;;;;;;;5118380;28;20222;-63
2023/03/25 12:58:31;;;;;;;1.10;0.68;;;;;;;;;;5112844;28;20199;-63
2023/03/25 13:01:05;;;;;;;1.15;0.70;;;;;;;;;;5048001;28;20211;-63
2023/03/25 13:03:39;;;;;;;1.10;0.70;;;;;;;;;;5098370;28;20579;-63
2023/03/25 13:06:11;;;;;;;1.05;0.70;;;;;;;;;;5098054;28;20230;-63
2023/03/25 13:08:41;;;;;;;0.93;0.60;;;;;;;;;;5103729;28;20231;-63
2023/03/25 13:11:10;;;;;;;1.92;0.70;;;;;;;;;;5118804;28;20210;-63
2023/03/25 13:13:38;;;;;;;0.93;0.60;;;;;;;;;;5118639;28;20210;-63
2023/03/25 13:16:10;;;;;;;1.10;0.70;;;;;;;;;;5118370;28;20201;-63
2023/03/25 13:18:39;;;;;;;1.00;0.70;;;;;;;;;;5118209;28;20277;-63
2023/03/25 13:21:09;;;;;;;1.42;0.98;;;;;;;;;;5117955;28;20285;-63
2023/03/25 13:23:37;;;;;;;0.63;0.40;;;;;;;;;;5118387;28;20297;-63
2023/03/25 13:26:07;;;;;;;0.93;0.60;;;;;;;;;;5115047;28;20223;-63
2023/03/25 13:28:38;;;;;;;0.95;0.65;;;;;;;;;;5118857;28;20210;-63
2023/03/25 13:31:08;;;;;;;0.82;0.50;;;;;;;;;;5118317;28;20234;-62
2023/03/25 13:33:39;;;;;;;1.05;0.77;;;;;;;;;;5117625;28;20289;-62
2023/03/25 13:36:10;;;;;;;1.45;0.60;;;;;;;;;;5117678;28;20238;-62
2023/03/25 13:38:41;;;;;;;0.75;0.50;;;;;;;;;;5116919;28;20290;-62
2023/03/25 13:41:10;;;;;;;1.13;0.60;;;;;;;;;;5118031;28;20260;-62
2023/03/25 13:43:41;;;;;;;0.85;0.50;;;;;;;;;;5117548;28;20203;-62
2023/03/25 13:46:11;;;;;;;0.82;0.50;;;;;;;;;;5117805;28;20230;-62
2023/03/25 13:48:42;;;;;;;0.70;0.52;;;;;;;;;;5099232;28;20196;-62
2023/03/25 13:51:09;;;;;;;1.60;0.63;;;;;;;;;;5097199;28;20211;-63
2023/03/25 13:53:38;;;;;;;1.05;0.50;;;;;;;;;;5097766;28;20212;-63
2023/03/25 13:56:32;;;;;;;0.88;0.63;;;;;;;;;;5096464;28;20824;-63
2023/03/25 13:59:12;;;;;;;0.60;0.40;;;;;;;;;;5097508;28;20559;-63
2023/03/25 14:01:51;;;;;;;1.25;0.60;;;;;;;;;;5096369;28;20222;-63
2023/03/25 14:04:42;;;;;;;0.55;0.50;;;;;;;;;;5096493;28;20203;-63
2023/03/25 14:07:20;;;;;;;0.70;0.47;;;;;;;;;;5096129;28;20206;-63
2023/03/25 14:10:08;;;;;;;0.80;0.40;;;;;;;;;;5096307;28;20486;-63
2023/03/25 14:12:37;;;;;;;0.60;0.47;;;;;;;;;;5087783;28;20200;-63
2023/03/25 14:15:08;;;;;;;0.93;0.43;;;;;;;;;;5095939;28;20456;-63
2023/03/25 14:17:37;;;;;;;1.23;0.40;;;;;;;;;;5096121;28;20203;-63
2023/03/25 14:20:11;;;;;;;0.40;0.35;;;;;;;;;;5097172;28;20204;-63
2023/03/25 14:22:40;;;;;;;0.50;0.50;;;;;;;;;;5096888;28;20213;-63
2023/03/25 14:25:15;;;;;;;0.50;0.40;;;;;;;;;;5097210;28;20226;-63
2023/03/25 14:27:48;;;;;;;0.57;0.30;;;;;;;;;;5096017;28;20211;-63
2023/03/25 14:30:20;;;;;;;0.50;0.40;;;;;;;;;;5096298;28;20203;-63
2023/03/25 14:32:48;;;;;;;0.32;0.32;;;;;;;;;;5096354;28;20770;-63
2023/03/25 14:35:33;;;;;;;0.52;0.47;;;;;;;;;;5096521;28;20200;-63
2023/03/25 14:38:16;;;;;;;0.80;0.40;;;;;;;;;;5096091;28;20203;-63
2023/03/25 14:40:50;;;;;;;0.52;0.52;;;;;;;;;;5096410;28;20262;-63
2023/03/25 14:43:21;;;;;;;0.50;0.30;;;;;;;;;;5095314;28;20607;-63
2023/03/25 14:46:17;;;;;;;1.00;0.38;;;;;;;;;;5094963;28;20695;-63
2023/03/25 14:48:45;;;;;;;0.60;0.40;;;;;;;;;;5094837;28;20199;-63
2023/03/25 14:51:20;;;;;;;0.50;0.50;;;;;;;;;;5095586;28;20196;-63
2023/03/25 14:53:52;;;;;;;0.70;0.50;;;;;;;;;;5095303;28;20213;-63
2023/03/25 14:56:23;;;;;;;0.50;0.40;;;;;;;;;;5095485;28;20598;-63
2023/03/25 14:58:52;;;;;;;0.90;0.40;;;;;;;;;;5095156;28;20475;-63
2023/03/25 15:01:21;;;;;;;0.47;0.30;;;;;;;;;;5096337;28;20212;-63